Decoded Metar for UAUU (KUSTANAY in KAZAKHSTAN) (IATA:KTQ) | Meteo·Mobile Aviation Weather
aviador You're here:

UAUU Decoded Metar

KUSTANAY in KAZAKHSTAN
Report Time2019-07-23 02:30:00
UTC Time2019-07-23 02:58:27
Flight Rules vfr VFR
Wind320° at 6 kt
W.Decomp.*RWY 33: 5.6 kt HW 2.1 kt LCW
Visibility9999 m
Phenomena:N/A
Clouds:N/A
Expected CloudBase > 2,400 ft AGL from Temp-Dew spread
CeilingNone
Temp19°C (ISA +5)
Dew Point13°C (68% RH)
AAT17.8°C
QNH1007 hPa
Density Alt1,611 ft
Elevation597 ft
Report Wrong Elevation
Raw Report
UAUU 230230Z 32003MPS CAVOK 19/13 Q1007 NOSIG RMK QFE740/0987=

Extra information for UAUU:More info

Metar Taf Metar & Taf Last 4 Metars F.Rules Stats Wind Profile Meteogram Temp Stats Airport Information Weather charts Add Link Nearby VenuesMetar ALERT Operation Metar Decoded Social comments